createdAt,value
2019-02-17T00:02:11.856Z,74.79
2019-02-17T00:04:42.299Z,74.65
2019-02-17T00:07:12.544Z,74.61
2019-02-17T00:09:42.875Z,74.57
2019-02-17T00:12:13.421Z,74.69
2019-02-17T00:14:43.569Z,74.46
2019-02-17T00:17:14.126Z,74.37
2019-02-17T00:19:44.478Z,74.08
2019-02-17T00:22:14.756Z,74.15
2019-02-17T00:24:45.018Z,74.26
2019-02-17T00:27:15.318Z,74.22
2019-02-17T00:29:45.960Z,74.10
2019-02-17T00:32:16.943Z,73.92
2019-02-17T00:34:47.453Z,73.86
2019-02-17T00:37:18.050Z,73.84
2019-02-17T00:39:48.430Z,73.88
2019-02-17T00:42:18.580Z,73.89
2019-02-17T00:44:49.022Z,73.77
2019-02-17T00:47:19.573Z,73.65
2019-02-17T00:49:49.717Z,73.28
2019-02-17T00:52:19.956Z,73.37
2019-02-17T00:54:50.357Z,73.41
2019-02-17T00:57:20.771Z,73.39
2019-02-17T00:59:51.271Z,73.32
2019-02-17T01:02:21.653Z,73.33
2019-02-17T01:04:51.795Z,73.48
2019-02-17T01:07:22.217Z,73.57
2019-02-17T01:09:52.687Z,73.45
2019-02-17T01:12:23.085Z,73.02
2019-02-17T01:14:53.406Z,72.78
2019-02-17T01:17:23.758Z,72.66
2019-02-17T01:19:54.098Z,72.72
2019-02-17T01:22:24.432Z,72.72
2019-02-17T01:24:54.559Z,72.74
2019-02-17T01:27:25.059Z,72.76
2019-02-17T01:29:55.401Z,72.69
2019-02-17T01:32:25.587Z,72.71
2019-02-17T01:34:55.944Z,72.66
2019-02-17T01:37:26.223Z,72.59
2019-02-17T01:39:56.769Z,72.60
2019-02-17T01:42:27.095Z,72.55
2019-02-17T01:44:57.707Z,72.43
2019-02-17T01:47:28.122Z,72.40
2019-02-17T01:49:58.419Z,72.39
2019-02-17T01:52:28.769Z,72.33
2019-02-17T01:54:59.109Z,72.29
2019-02-17T01:57:29.316Z,72.27
2019-02-17T01:59:59.913Z,72.17
2019-02-17T02:02:31.126Z,72.15
2019-02-17T02:05:01.400Z,71.81
2019-02-17T02:07:32.153Z,71.84
2019-02-17T02:10:02.887Z,71.61
2019-02-17T02:12:33.178Z,71.33
2019-02-17T02:15:04.841Z,70.95
2019-02-17T02:17:35.050Z,70.52
2019-02-17T02:20:06.612Z,70.06
2019-02-17T02:22:36.895Z,69.91
2019-02-17T02:25:07.125Z,69.45
2019-02-17T02:27:37.625Z,69.20
2019-02-17T02:30:09.302Z,69.01
2019-02-17T02:32:39.608Z,68.50
2019-02-17T02:35:09.808Z,68.31
2019-02-17T02:37:40.117Z,68.29
2019-02-17T02:40:10.522Z,68.12
2019-02-17T02:42:40.805Z,68.02
2019-02-17T02:45:11.881Z,67.83
2019-02-17T02:47:41.969Z,67.99
2019-02-17T02:50:12.439Z,67.97
2019-02-17T02:52:42.893Z,68.17
2019-02-17T02:55:13.515Z,68.37
2019-02-17T02:57:43.970Z,68.56
2019-02-17T03:00:14.580Z,68.70
2019-02-17T03:02:44.773Z,68.82
2019-02-17T03:05:15.171Z,68.87
2019-02-17T03:07:45.309Z,69.02
2019-02-17T03:10:16.215Z,69.01
2019-02-17T03:12:46.512Z,69.08
2019-02-17T03:15:16.851Z,69.25
2019-02-17T03:17:47.374Z,69.42
2019-02-17T03:20:17.575Z,69.59
2019-02-17T03:22:47.816Z,69.60
2019-02-17T03:25:18.238Z,69.46
2019-02-17T03:27:48.489Z,69.48
2019-02-17T03:30:18.862Z,69.59
2019-02-17T03:32:49.097Z,69.70
2019-02-17T03:35:19.567Z,69.73
2019-02-17T03:37:49.865Z,69.63
2019-02-17T03:40:19.728Z,69.65
2019-02-17T03:42:50.125Z,69.61
2019-02-17T03:45:21.119Z,69.68
2019-02-17T03:47:51.753Z,69.68
2019-02-17T03:50:22.106Z,69.86
2019-02-17T03:52:52.275Z,69.81
2019-02-17T03:55:22.701Z,69.80
2019-02-17T03:57:52.997Z,69.80
2019-02-17T04:00:23.852Z,69.75
2019-02-17T04:02:54.249Z,69.72
2019-02-17T04:05:24.825Z,69.52
2019-02-17T04:07:55.303Z,69.49
2019-02-17T04:10:25.693Z,69.54
2019-02-17T04:12:56.070Z,69.39
2019-02-17T04:15:26.450Z,69.46
2019-02-17T04:17:57.114Z,69.58
2019-02-17T04:20:27.266Z,69.61
2019-02-17T04:22:58.078Z,69.67
2019-02-17T04:25:28.297Z,69.78
2019-02-17T04:27:58.738Z,69.92
2019-02-17T04:30:29.830Z,69.98
2019-02-17T04:33:00.699Z,70.01
2019-02-17T04:35:31.202Z,69.96
2019-02-17T04:38:01.621Z,69.90
2019-02-17T04:40:31.889Z,69.67
2019-02-17T04:43:02.125Z,69.51
2019-02-17T04:45:32.433Z,69.43
2019-02-17T04:48:02.764Z,69.32
2019-02-17T04:50:33.165Z,69.41
2019-02-17T04:53:05.435Z,69.61
2019-02-17T04:55:37.210Z,69.56
2019-02-17T04:58:07.391Z,69.50
2019-02-17T05:00:40.520Z,69.38
2019-02-17T05:03:12.740Z,69.49
2019-02-17T05:05:50.529Z,69.58
2019-02-17T05:08:21.170Z,69.61
2019-02-17T05:10:51.359Z,69.75
2019-02-17T05:13:21.935Z,69.96
2019-02-17T05:15:52.179Z,70.06
2019-02-17T05:18:22.485Z,70.15
2019-02-17T05:20:52.752Z,70.22
2019-02-17T05:23:23.000Z,70.15
2019-02-17T05:25:53.586Z,69.75
2019-02-17T05:28:24.685Z,69.64
2019-02-17T05:30:54.976Z,69.58
2019-02-17T05:33:25.956Z,69.26
2019-02-17T05:35:56.241Z,68.95
2019-02-17T05:38:26.838Z,68.79
2019-02-17T05:40:57.228Z,68.34
2019-02-17T05:49:05.768Z,67.10
2019-02-17T05:51:36.737Z,67.04
2019-02-17T05:54:07.008Z,66.94
2019-02-17T05:56:37.319Z,66.86
2019-02-17T05:59:07.438Z,66.85
2019-02-17T06:01:38.127Z,66.86
2019-02-17T06:04:08.549Z,67.01
2019-02-17T06:06:38.974Z,66.96
2019-02-17T06:09:09.220Z,66.23
2019-02-17T06:11:39.610Z,66.70
2019-02-17T06:14:10.534Z,66.64
2019-02-17T06:16:41.039Z,66.34
2019-02-17T06:19:11.441Z,66.33
2019-02-17T06:21:42.008Z,65.99
2019-02-17T06:24:12.577Z,65.88
2019-02-17T06:26:43.069Z,65.73
2019-02-17T06:29:13.291Z,65.46
2019-02-17T06:31:43.687Z,65.23
2019-02-17T06:34:14.107Z,65.09
2019-02-17T06:36:44.710Z,64.85
2019-02-17T06:39:15.732Z,64.64
2019-02-17T06:41:46.637Z,64.67
2019-02-17T06:44:17.064Z,64.52
2019-02-17T06:46:51.550Z,64.45
2019-02-17T06:49:21.932Z,64.29
2019-02-17T06:51:52.277Z,64.16
2019-02-17T06:54:22.920Z,63.76
2019-02-17T06:57:08.360Z,63.49
2019-02-17T06:59:38.860Z,63.25
2019-02-17T07:02:08.962Z,63.60
2019-02-17T07:04:58.821Z,63.47
2019-02-17T07:07:29.311Z,63.66
2019-02-17T07:09:59.756Z,63.91
2019-02-17T07:12:30.777Z,64.04
2019-02-17T07:15:01.372Z,64.12
2019-02-17T07:17:31.740Z,64.07
2019-02-17T07:20:02.063Z,63.89
2019-02-17T07:22:32.664Z,63.98
2019-02-17T07:25:03.397Z,64.08
2019-02-17T07:27:33.745Z,64.13
2019-02-17T07:30:04.434Z,64.20
2019-02-17T07:32:35.249Z,64.27
2019-02-17T07:35:05.732Z,64.42
2019-02-17T07:37:36.132Z,64.64
2019-02-17T07:40:06.845Z,64.42
2019-02-17T07:42:37.373Z,64.18
2019-02-17T07:45:07.800Z,63.86
2019-02-17T07:47:38.179Z,63.63
2019-02-17T07:50:08.823Z,63.34
2019-02-17T07:52:39.423Z,63.00
2019-02-17T07:55:09.722Z,62.66
2019-02-17T07:57:40.213Z,62.20
2019-02-17T08:00:10.579Z,62.04
2019-02-17T08:02:41.063Z,61.97
2019-02-17T08:05:11.720Z,62.16
2019-02-17T08:07:43.210Z,61.74
2019-02-17T08:10:13.693Z,61.46
2019-02-17T08:12:43.976Z,61.21
2019-02-17T08:15:14.781Z,61.42
2019-02-17T08:17:45.370Z,60.96
2019-02-17T08:20:15.851Z,60.76
2019-02-17T08:22:46.825Z,59.31
2019-02-17T08:25:21.836Z,59.01
2019-02-17T08:27:52.584Z,58.36
2019-02-17T08:30:23.172Z,58.37
2019-02-17T08:32:54.034Z,58.01
2019-02-17T08:35:24.262Z,57.72
2019-02-17T08:37:54.621Z,57.09
2019-02-17T08:40:25.755Z,57.55
2019-02-17T08:42:56.535Z,57.17
2019-02-17T08:45:27.700Z,55.52
2019-02-17T08:47:58.381Z,55.68
2019-02-17T08:50:28.676Z,55.23
2019-02-17T08:52:58.922Z,54.93
2019-02-17T08:55:29.352Z,54.99
2019-02-17T08:57:59.412Z,55.17
2019-02-17T09:00:29.870Z,54.69
2019-02-17T09:03:00.198Z,54.61
2019-02-17T09:05:30.528Z,55.10
2019-02-17T09:08:00.837Z,54.19
2019-02-17T09:10:31.722Z,54.26
2019-02-17T09:13:02.239Z,54.09
2019-02-17T09:15:32.785Z,53.89
2019-02-17T09:18:03.194Z,53.89
2019-02-17T09:20:33.822Z,53.86
2019-02-17T09:23:04.278Z,53.49
2019-02-17T09:25:34.988Z,53.41
2019-02-17T09:28:05.480Z,52.71
2019-02-17T09:30:36.209Z,53.10
2019-02-17T09:33:06.935Z,53.17
2019-02-17T09:35:38.914Z,52.42
2019-02-17T09:38:09.361Z,52.49
2019-02-17T09:40:39.670Z,52.32
2019-02-17T09:43:10.084Z,52.07
2019-02-17T09:45:40.177Z,51.66
2019-02-17T09:48:10.469Z,51.39
2019-02-17T09:50:41.386Z,51.50
2019-02-17T09:53:11.777Z,51.63
2019-02-17T09:55:42.931Z,51.12
2019-02-17T09:58:13.707Z,50.63
2019-02-17T10:00:44.224Z,50.44
2019-02-17T10:03:14.576Z,50.26
2019-02-17T10:05:44.974Z,50.52
2019-02-17T10:08:15.407Z,49.88
2019-02-17T10:10:45.711Z,50.15
2019-02-17T10:13:16.434Z,49.52
2019-02-17T10:15:52.715Z,48.90
2019-02-17T10:18:23.104Z,48.76
2019-02-17T10:20:53.658Z,48.52
2019-02-17T10:23:23.985Z,48.40
2019-02-17T10:25:56.480Z,48.29
2019-02-17T10:28:26.938Z,47.35
2019-02-17T10:30:57.290Z,47.44
2019-02-17T10:33:27.727Z,47.17
2019-02-17T10:35:58.852Z,47.17
2019-02-17T10:38:29.607Z,47.21
2019-02-17T10:41:00.852Z,46.61
2019-02-17T10:43:31.781Z,46.01
2019-02-17T10:46:03.263Z,45.97
2019-02-17T10:48:33.974Z,45.13
2019-02-17T10:54:23.137Z,44.49
2019-02-17T10:56:53.954Z,43.35
2019-02-17T10:59:24.395Z,42.16
2019-02-17T11:01:55.832Z,41.55
2019-02-17T11:04:26.325Z,40.75
2019-02-17T11:06:56.711Z,41.26
2019-02-17T11:09:27.011Z,40.99
2019-02-17T11:11:57.754Z,41.13
2019-02-17T11:14:28.183Z,41.21
2019-02-17T11:16:58.527Z,40.97
2019-02-17T11:19:28.973Z,40.67
2019-02-17T11:21:59.974Z,40.79
2019-02-17T11:24:30.426Z,40.98
2019-02-17T11:27:00.760Z,40.53
2019-02-17T11:29:31.653Z,40.42
2019-02-17T11:32:02.215Z,40.33
2019-02-17T11:34:33.331Z,39.80
2019-02-17T11:37:04.084Z,38.99
2019-02-17T11:39:34.682Z,39.47
2019-02-17T11:42:05.222Z,39.61
2019-02-17T11:44:35.747Z,38.96
2019-02-17T11:47:07.462Z,39.13
2019-02-17T11:49:38.040Z,38.82
2019-02-17T11:52:08.256Z,38.86
2019-02-17T11:54:39.142Z,38.80
2019-02-17T11:57:09.648Z,39.03
2019-02-17T11:59:40.097Z,39.10
2019-02-17T12:02:10.642Z,38.99
2019-02-17T12:04:41.258Z,38.76
2019-02-17T12:07:12.751Z,39.42
2019-02-17T12:09:43.165Z,39.52
2019-02-17T12:12:13.821Z,38.85
2019-02-17T12:14:44.661Z,38.84
2019-02-17T12:17:15.428Z,39.58
2019-02-17T12:19:47.100Z,39.43
2019-02-17T12:22:21.772Z,38.90
2019-02-17T12:25:04.837Z,38.39
2019-02-17T12:27:52.147Z,38.52
2019-02-17T12:30:24.694Z,39.26
2019-02-17T12:32:55.126Z,39.45
2019-02-17T12:35:25.662Z,40.07
2019-02-17T12:37:56.966Z,40.42
2019-02-17T12:40:27.915Z,40.03
2019-02-17T12:42:58.209Z,39.95
2019-02-17T12:45:29.551Z,39.81
2019-02-17T12:48:00.204Z,40.04
2019-02-17T12:50:30.711Z,40.68
2019-02-17T12:53:01.296Z,40.01
2019-02-17T12:55:31.729Z,40.38
2019-02-17T12:58:02.360Z,39.78
2019-02-17T13:00:33.517Z,39.81
2019-02-17T13:03:03.746Z,39.52
2019-02-17T13:05:34.091Z,39.91
2019-02-17T13:08:04.439Z,40.68
2019-02-17T13:10:36.033Z,40.92
2019-02-17T13:13:06.553Z,40.70
2019-02-17T13:15:36.995Z,41.02
2019-02-17T13:18:07.628Z,41.32
2019-02-17T13:20:38.046Z,41.13
2019-02-17T13:23:08.341Z,41.91
2019-02-17T13:25:41.637Z,41.95
2019-02-17T13:28:11.862Z,42.18
2019-02-17T13:30:42.161Z,42.18
2019-02-17T13:33:12.689Z,42.48
2019-02-17T13:35:43.134Z,42.78
2019-02-17T13:38:13.488Z,43.90
2019-02-17T13:40:44.069Z,44.69
2019-02-17T13:43:14.580Z,44.61
2019-02-17T13:45:45.476Z,44.80
2019-02-17T13:48:16.142Z,45.01
2019-02-17T13:50:47.443Z,45.24
2019-02-17T13:53:17.582Z,45.25
2019-02-17T13:55:48.135Z,46.17
2019-02-17T13:58:18.552Z,45.98
2019-02-17T14:00:48.575Z,46.81
2019-02-17T14:03:19.002Z,50.92
2019-02-17T14:05:49.771Z,53.23
2019-02-17T14:08:20.402Z,53.76
2019-02-17T14:10:50.926Z,54.45
2019-02-17T14:13:21.303Z,54.32
2019-02-17T14:15:51.464Z,54.95
2019-02-17T14:18:21.978Z,55.11
2019-02-17T14:20:52.717Z,55.49
2019-02-17T14:23:23.456Z,55.07
2019-02-17T14:25:53.544Z,54.74
2019-02-17T14:28:23.883Z,54.95
2019-02-17T14:30:54.693Z,54.96
2019-02-17T14:33:24.866Z,55.12
2019-02-17T14:35:55.180Z,55.13
2019-02-17T14:38:25.302Z,54.40
2019-02-17T14:40:55.687Z,54.07
2019-02-17T14:43:26.187Z,53.80
2019-02-17T14:45:56.350Z,53.17
2019-02-17T14:48:26.938Z,52.58
2019-02-17T14:50:57.387Z,52.49
2019-02-17T14:53:27.597Z,52.22
2019-02-17T14:55:58.549Z,51.87
2019-02-17T14:58:28.868Z,51.93
2019-02-17T15:00:59.422Z,51.48
2019-02-17T15:03:29.924Z,51.68
2019-02-17T15:06:00.484Z,52.11
2019-02-17T15:08:30.838Z,51.64
2019-02-17T15:11:01.127Z,51.75
2019-02-17T15:13:31.763Z,51.70
2019-02-17T15:16:02.270Z,52.25
2019-02-17T15:18:33.157Z,52.17
2019-02-17T15:21:03.413Z,52.48
2019-02-17T15:23:33.987Z,53.32
2019-02-17T15:26:04.750Z,53.17
2019-02-17T15:28:35.064Z,53.06
2019-02-17T15:31:05.603Z,53.31
2019-02-17T15:33:35.973Z,53.74
2019-02-17T15:36:06.275Z,54.12
2019-02-17T15:38:36.761Z,53.31
2019-02-17T15:41:07.611Z,53.32
2019-02-17T15:43:38.236Z,53.13
2019-02-17T15:46:09.181Z,53.10
2019-02-17T15:48:39.430Z,52.77
2019-02-17T15:51:09.644Z,52.82
2019-02-17T15:53:39.989Z,53.22
2019-02-17T15:56:10.303Z,53.45
2019-02-17T15:58:40.827Z,53.36
2019-02-17T16:01:11.397Z,53.03
2019-02-17T16:03:42.018Z,53.38
2019-02-17T16:06:12.322Z,55.75
2019-02-17T16:08:42.588Z,57.34
2019-02-17T16:11:12.683Z,57.84
2019-02-17T16:13:42.903Z,59.43
2019-02-17T16:16:13.868Z,59.40
2019-02-17T16:18:44.344Z,58.72
2019-02-17T16:21:14.636Z,58.65
2019-02-17T16:23:44.870Z,58.13
2019-02-17T16:26:15.324Z,57.39
2019-02-17T16:28:45.657Z,56.90
2019-02-17T16:31:15.932Z,56.70
2019-02-17T16:33:46.019Z,56.77
2019-02-17T16:36:16.356Z,56.94
2019-02-17T16:38:47.135Z,57.80
2019-02-17T16:41:17.637Z,59.25
2019-02-17T16:43:48.077Z,59.82
2019-02-17T16:46:18.747Z,59.75
2019-02-17T16:48:51.766Z,59.81
2019-02-17T16:51:22.274Z,61.78
2019-02-17T16:53:52.851Z,63.88
2019-02-17T16:56:24.047Z,66.80
2019-02-17T16:58:55.910Z,67.10
2019-02-17T17:01:26.849Z,69.00
2019-02-17T17:03:57.249Z,72.03
2019-02-17T17:06:27.833Z,72.57
2019-02-17T17:08:58.442Z,72.80
2019-02-17T17:11:29.534Z,72.16
2019-02-17T17:14:00.373Z,71.70
2019-02-17T17:16:30.961Z,70.58
2019-02-17T17:19:01.898Z,69.24
2019-02-17T17:21:32.266Z,68.58
2019-02-17T17:24:02.626Z,68.19
2019-02-17T17:26:33.537Z,70.47
2019-02-17T17:29:04.516Z,72.47
2019-02-17T17:31:35.372Z,73.14
2019-02-17T17:34:05.991Z,72.84
2019-02-17T17:36:37.175Z,72.61
2019-02-17T17:39:08.496Z,71.72
2019-02-17T17:41:39.191Z,72.13
2019-02-17T17:44:10.210Z,71.90
2019-02-17T17:46:41.642Z,71.72
2019-02-17T17:49:19.081Z,71.52
2019-02-17T17:51:45.626Z,71.55
2019-02-17T17:54:16.624Z,70.69
2019-02-17T17:56:47.671Z,71.03
2019-02-17T17:59:18.571Z,70.39
2019-02-17T18:01:55.704Z,69.84
2019-02-17T18:04:26.943Z,69.55
2019-02-17T18:06:57.960Z,69.65
2019-02-17T18:09:29.342Z,69.41
2019-02-17T18:12:00.289Z,68.96
2019-02-17T18:14:32.634Z,68.30
2019-02-17T18:17:03.422Z,67.32
2019-02-17T18:19:34.233Z,65.45
2019-02-17T18:22:04.877Z,66.21
2019-02-17T18:24:36.048Z,66.05
2019-02-17T18:27:07.665Z,65.37
2019-02-17T18:29:38.928Z,64.13
2019-02-17T18:32:11.108Z,64.45
2019-02-17T18:34:42.018Z,64.29
2019-02-17T18:37:12.850Z,63.52
2019-02-17T18:39:46.232Z,63.35
2019-02-17T18:42:16.895Z,62.73
2019-02-17T18:44:47.999Z,62.77
2019-02-17T18:47:19.898Z,62.59
2019-02-17T18:49:51.599Z,61.88
2019-02-17T18:52:22.406Z,61.84
2019-02-17T18:54:54.002Z,61.82
2019-02-17T18:57:25.033Z,61.55
2019-02-17T18:59:56.417Z,61.40
2019-02-17T19:02:27.240Z,60.61
2019-02-17T19:04:58.180Z,60.22
2019-02-17T19:07:29.533Z,60.29
2019-02-17T19:10:00.653Z,59.74
2019-02-17T19:12:31.904Z,59.85
2019-02-17T19:15:02.835Z,59.65
2019-02-17T19:17:33.917Z,59.14
2019-02-17T19:20:05.971Z,58.70
2019-02-17T19:22:36.540Z,59.34
2019-02-17T19:25:08.454Z,58.55
2019-02-17T19:27:39.145Z,58.07
2019-02-17T19:30:11.103Z,57.91
2019-02-17T19:32:42.089Z,57.22
2019-02-17T19:35:13.261Z,57.34
2019-02-17T19:37:44.438Z,56.83
2019-02-17T19:40:15.151Z,57.06
2019-02-17T19:42:45.970Z,55.98
2019-02-17T19:45:16.801Z,56.27
2019-02-17T19:47:47.357Z,55.67
2019-02-17T19:50:17.914Z,55.44
2019-02-17T19:52:48.526Z,54.58
2019-02-17T19:55:19.224Z,54.60
2019-02-17T19:57:50.184Z,53.78
2019-02-17T20:00:20.814Z,53.59
2019-02-17T20:03:06.945Z,53.67
2019-02-17T20:05:40.787Z,53.89
2019-02-17T20:08:12.465Z,54.01
2019-02-17T20:10:45.775Z,53.44
2019-02-17T20:13:19.248Z,53.28
2019-02-17T20:15:51.453Z,53.30
2019-02-17T20:18:27.811Z,53.13
2019-02-17T20:21:01.487Z,53.07
2019-02-17T20:23:32.505Z,52.28
2019-02-17T20:26:03.124Z,52.71
2019-02-17T20:28:43.086Z,52.83
2019-02-17T20:31:06.961Z,52.69
2019-02-17T20:33:37.677Z,53.07
2019-02-17T20:36:08.115Z,53.36
2019-02-17T20:38:38.880Z,53.15
2019-02-17T20:41:09.470Z,52.80
2019-02-17T20:43:40.539Z,52.83
2019-02-17T20:46:11.281Z,52.51
2019-02-17T20:48:41.933Z,53.02
2019-02-17T20:51:12.355Z,52.71
2019-02-17T20:53:42.979Z,52.94
2019-02-17T20:56:13.345Z,53.07
2019-02-17T20:58:43.823Z,52.74
2019-02-17T21:01:14.547Z,52.73
2019-02-17T21:03:45.041Z,52.73
2019-02-17T21:06:16.042Z,52.67
2019-02-17T21:08:46.234Z,52.51
2019-02-17T21:11:16.970Z,52.47
2019-02-17T21:13:47.826Z,53.35
2019-02-17T21:16:18.246Z,53.23
2019-02-17T21:18:48.514Z,53.34
2019-02-17T21:21:18.971Z,53.17
2019-02-17T21:23:49.505Z,53.09
2019-02-17T21:26:26.001Z,53.30
2019-02-17T21:28:52.064Z,53.21
2019-02-17T21:31:22.233Z,53.12
2019-02-17T21:33:52.790Z,53.74
2019-02-17T21:36:23.605Z,53.89
2019-02-17T21:38:54.048Z,54.11
2019-02-17T21:41:25.043Z,54.04
2019-02-17T21:43:55.240Z,54.14
2019-02-17T21:46:25.585Z,53.98
2019-02-17T21:48:55.979Z,54.36
2019-02-17T21:51:26.243Z,54.42
2019-02-17T21:53:56.855Z,54.35
2019-02-17T21:56:27.085Z,54.22
2019-02-17T21:58:57.378Z,54.72
2019-02-17T22:01:27.820Z,54.49
2019-02-17T22:03:58.084Z,54.68
2019-02-17T22:06:33.392Z,54.68
2019-02-17T22:09:00.989Z,54.98
2019-02-17T22:11:31.419Z,54.69
2019-02-17T22:14:01.797Z,54.86
2019-02-17T22:16:31.906Z,54.85
2019-02-17T22:19:02.034Z,54.23
2019-02-17T22:21:35.485Z,54.24
2019-02-17T22:24:06.132Z,53.68
2019-02-17T22:26:36.552Z,53.71
2019-02-17T22:29:06.971Z,53.67
2019-02-17T22:31:37.425Z,53.57
2019-02-17T22:34:07.918Z,53.65
2019-02-17T22:36:43.661Z,53.52
2019-02-17T22:39:10.444Z,53.58
2019-02-17T22:41:40.666Z,53.29
2019-02-17T22:44:11.242Z,53.35
2019-02-17T22:46:42.025Z,53.36
2019-02-17T22:49:15.474Z,53.99
2019-02-17T22:51:46.424Z,54.05
2019-02-17T22:54:17.097Z,54.83
2019-02-17T22:56:47.327Z,54.10
2019-02-17T22:59:18.015Z,53.72
2019-02-17T23:01:48.711Z,53.79
2019-02-17T23:04:19.668Z,54.20
2019-02-17T23:06:54.181Z,54.22
2019-02-17T23:09:22.572Z,54.10
2019-02-17T23:11:53.111Z,53.85
2019-02-17T23:14:23.768Z,53.67
2019-02-17T23:16:54.607Z,53.48
2019-02-17T23:19:25.082Z,53.08
2019-02-17T23:21:55.425Z,52.92
2019-02-17T23:24:25.986Z,51.84
2019-02-17T23:26:56.399Z,51.83
2019-02-17T23:29:26.903Z,51.86
2019-02-17T23:31:57.387Z,52.03
2019-02-17T23:34:27.821Z,52.18
2019-02-17T23:37:03.958Z,52.29
2019-02-17T23:39:30.426Z,51.81
2019-02-17T23:42:00.582Z,51.91
2019-02-17T23:44:30.974Z,51.88
2019-02-17T23:47:01.169Z,52.11
2019-02-17T23:49:31.422Z,52.17
2019-02-17T23:52:01.703Z,52.32
2019-02-17T23:54:31.741Z,52.37
2019-02-17T23:57:01.944Z,52.14
2019-02-17T23:59:32.200Z,52.18
